UAL Aberdeen — PBHZ — position and weather

sailwx.info

Track history (hours):
 
Tides and Currents Weather Stations Pressure Air Temp Water Temp Dewpoint Dewpoint Depression Visibility Wind Speed Wind Dir Waves Ship Positions

UAL Aberdeen

Last reported at 2015-Jul-31 11:30 UTC. Time now 2015-Aug-02 12:26 UTC.
Position N 35°58' E 000°04'.

Length 129 m; beam 17 m.

Type: Cargo ship. MMSI: 244093964.

Date/timePositionNaut miles runAvg speedWind from/ knotsBaromVisibWave heightAir tempDewpointWater temp
2015-Jul-31 11:30N 35°58' E 000°04'0 0.0
2015-Jul-29 21:28N 35°58' E 000°04'0 0.0
2015-Jul-29 20:28N 35°58' E 000°04'2 2.6
2015-Jul-29 19:33N 35°56' E 000°04'1 0.5
2015-Jul-29 18:28N 35°56' E 000°05'0 0.0
2015-Jul-29 17:33N 35°56' E 000°05'0 0.0
2015-Jul-29 16:28N 35°56' E 000°05'0 0.0
2015-Jul-29 15:33N 35°56' E 000°05'0 0.0
2015-Jul-29 14:33N 35°56' E 000°05'0 0.0
2015-Jul-29 13:33N 35°56' E 000°05'0 0.0
2015-Jul-29 12:27N 35°56' E 000°05'0 0.0
2015-Jul-29 06:21N 35°56' E 000°05'0 0.0
2015-Jul-29 05:33N 35°56' E 000°05'0 0.0
2015-Jul-29 04:27N 35°56' E 000°05'0 0.0
2015-Jul-29 03:33N 35°56' E 000°05'0 0.0
2015-Jul-29 02:33N 35°56' E 000°05'0 0.0
2015-Jul-29 01:33N 35°56' E 000°05'0 0.0
2015-Jul-28 23:33N 35°56' E 000°05'0 0.0
2015-Jul-28 22:27N 35°56' E 000°05'0 0.0
2015-Jul-28 20:15N 35°56' E 000°05'0 0.0
2015-Jul-28 19:33N 35°56' E 000°05'0 0.0
2015-Jul-28 18:33N 35°56' E 000°05'0 0.0
2015-Jul-28 17:26N 35°56' E 000°05'0 0.0
2015-Jul-28 16:27N 35°56' E 000°05'0 0.0
2015-Jul-28 15:33N 35°56' E 000°05'0 0.0
2015-Jul-28 14:33N 35°56' E 000°05'0 0.0
2015-Jul-27 23:32N 35°56' E 000°05'0 0.0
2015-Jul-27 22:32N 35°56' E 000°05'0 0.0
2015-Jul-27 21:32N 35°56' E 000°05'0 0.0
2015-Jul-27 20:32N 35°56' E 000°05'0 0.0
2015-Jul-27 19:32N 35°56' E 000°05'0 0.0
2015-Jul-27 18:32N 35°56' E 000°05'0 0.0
2015-Jul-27 17:32N 35°56' E 000°05'0 0.0
2015-Jul-27 16:29N 35°56' E 000°05'0 0.0
2015-Jul-27 15:32N 35°56' E 000°05'0 0.0
2015-Jul-27 14:26N 35°56' E 000°05'0 0.0
2015-Jul-27 13:20N 35°56' E 000°05'0 0.0
2015-Jul-27 12:32N 35°56' E 000°05'0 0.0
2015-Jul-27 11:32N 35°56' E 000°05'0 0.0
2015-Jul-27 10:31N 35°56' E 000°05'0 0.0
2015-Jul-27 09:31N 35°56' E 000°05'0 0.0
2015-Jul-27 08:25N 35°56' E 000°05'0 0.0
2015-Jul-27 07:19N 35°56' E 000°05'0 0.0
2015-Jul-27 03:13N 35°56' E 000°05'0 0.0
2015-Jul-27 02:31N 35°56' E 000°05'0 0.0
2015-Jul-27 01:31N 35°56' E 000°05'0 0.0
2015-Jul-27 00:31N 35°56' E 000°05'0 0.0
2015-Jul-26 23:22N 35°56' E 000°05'0 0.0
2015-Jul-26 22:25N 35°56' E 000°05'0 0.0
2015-Jul-26 21:25N 35°56' E 000°05'0 0.0
2015-Jul-26 20:31N 35°56' E 000°05'0 0.0
2015-Jul-26 19:31N 35°56' E 000°05'0 0.0
2015-Jul-26 18:29N 35°56' E 000°05'0 0.0
2015-Jul-26 17:25N 35°56' E 000°05'0 0.0
2015-Jul-26 16:25N 35°56' E 000°05'0 0.0
2015-Jul-26 15:19N 35°56' E 000°05'2 0.1
2015-Jul-25 11:15N 35°58' E 000°03'0 0.0
2015-Jul-25 10:33N 35°58' E 000°03'0 0.0
2015-Jul-25 09:33N 35°58' E 000°03'0 0.0
2015-Jul-25 08:06N 35°58' E 000°03'0 0.0
2015-Jul-25 05:32N 35°58' E 000°03'0 0.0
2015-Jul-25 03:17N 35°58' E 000°03'0 0.0
2015-Jul-24 20:32N 35°58' E 000°03'0 0.1
2015-Jul-24 19:33N 35°58' E 000°03'0 0.0
2015-Jul-24 18:33N 35°58' E 000°03'0 0.0
2015-Jul-24 17:33N 35°58' E 000°03'0 0.0
2015-Jul-24 16:33N 35°58' E 000°03'0 0.0
2015-Jul-24 15:33N 35°58' E 000°03'0 0.0
2015-Jul-24 14:29N 35°58' E 000°03'0 0.0
2015-Jul-24 13:32N 35°58' E 000°03'0 0.0
2015-Jul-24 12:32N 35°58' E 000°03'0 0.0
2015-Jul-24 11:32N 35°58' E 000°03'0 0.0
2015-Jul-23 22:31N 35°58' E 000°03'0 0.0
2015-Jul-23 18:17N 35°58' E 000°03'0 0.0
2015-Jul-23 17:23N 35°58' E 000°03'0 0.0
2015-Jul-23 13:13N 35°58' E 000°03'5 3.8
2015-Jul-23 12:00N 35°54' E 000°00'5 2.9 360 / 31012.810.8 29.8
2015-Jul-23 10:22N 35°58' E 000°03'0 0.0
2015-Jul-23 09:28N 35°58' E 000°03'0 0.0
2015-Jul-23 08:31N 35°58' E 000°03'0 0.0
2015-Jul-23 05:22N 35°58' E 000°03'0 0.0
2015-Jul-23 04:22N 35°58' E 000°03'0 0.0
2015-Jul-23 03:25N 35°58' E 000°03'0 0.0
2015-Jul-23 02:11N 35°58' E 000°03'0 0.0
2015-Jul-23 01:31N 35°58' E 000°03'0 0.0
2015-Jul-22 22:10N 35°58' E 000°03'0 0.0
2015-Jul-22 20:04N 35°58' E 000°03'0 0.0
2015-Jul-22 19:31N 35°58' E 000°03'0 0.0
2015-Jul-22 15:15N 35°58' E 000°03'0 0.0
2015-Jul-22 14:21N 35°58' E 000°03'0 0.0
2015-Jul-22 13:16N 35°58' E 000°03'0 0.0
2015-Jul-22 12:28N 35°58' E 000°03'0 0.0
2015-Jul-22 11:30N 35°58' E 000°03'4 0.7
2015-Jul-22 06:27N 36°01' E 000°03'9 9.8
2015-Jul-22 05:33N 36°10' E 000°03'1010.4
2015-Jul-22 04:33N 36°20' E 000°05'11 9.8
2015-Jul-22 03:24N 36°27' E 000°16'1010.2
2015-Jul-22 02:26N 36°31' E 000°27'9 9.9
2015-Jul-22 01:33N 36°35' E 000°37'10 9.6
2015-Jul-22 00:29N 36°41' E 000°48'910.2
2015-Jul-21 23:33N 36°45' E 000°59'1111.1
2015-Jul-21 22:33N 36°47' E 001°12'1211.6
2015-Jul-21 21:33N 36°50' E 001°26'1311.7
2015-Jul-21 20:28N 36°53' E 001°41'1111.7
2015-Jul-21 19:33N 36°57' E 001°54'1111.1
2015-Jul-21 18:33N 36°60' E 002°08'1111.0
2015-Jul-21 17:33N 37°02' E 002°21'1111.2
2015-Jul-21 16:33N 37°05' E 002°35'1111.3
2015-Jul-21 15:33N 37°07' E 002°48'1413.7
2015-Jul-21 14:33N 37°09' E 003°05'10 9.4
2015-Jul-21 13:33N 37°10' E 003°17'1211.7
2015-Jul-21 12:33N 37°12' E 003°32'1111.3
2015-Jul-21 11:33N 37°13' E 003°46'  
Track history (hours):
 
Tides and Currents Weather Stations Pressure Air Temp Water Temp Dewpoint Dewpoint Depression Visibility Wind Speed Wind Dir Waves Ship Positions

UAL Aberdeen

Last reported at 2015-Jul-31 11:30 UTC. Time now 2015-Aug-02 12:26 UTC.
Position N 35°58' E 000°04'.

Length 129 m; beam 17 m.

Type: Cargo ship. MMSI: 244093964.

Date/timePositionNaut miles runAvg speedWind from/ knotsBaromVisibWave heightAir tempDewpointWater temp
2015-Jul-31 11:30N 35°58' E 000°04'0 0.0
2015-Jul-29 21:28N 35°58' E 000°04'0 0.0
2015-Jul-29 20:28N 35°58' E 000°04'2 2.6
2015-Jul-29 19:33N 35°56' E 000°04'1 0.5
2015-Jul-29 18:28N 35°56' E 000°05'0 0.0
2015-Jul-29 17:33N 35°56' E 000°05'0 0.0
2015-Jul-29 16:28N 35°56' E 000°05'0 0.0
2015-Jul-29 15:33N 35°56' E 000°05'0 0.0
2015-Jul-29 14:33N 35°56' E 000°05'0 0.0
2015-Jul-29 13:33N 35°56' E 000°05'0 0.0
2015-Jul-29 12:27N 35°56' E 000°05'0 0.0
2015-Jul-29 06:21N 35°56' E 000°05'0 0.0
2015-Jul-29 05:33N 35°56' E 000°05'0 0.0
2015-Jul-29 04:27N 35°56' E 000°05'0 0.0
2015-Jul-29 03:33N 35°56' E 000°05'0 0.0
2015-Jul-29 02:33N 35°56' E 000°05'0 0.0
2015-Jul-29 01:33N 35°56' E 000°05'0 0.0
2015-Jul-28 23:33N 35°56' E 000°05'0 0.0
2015-Jul-28 22:27N 35°56' E 000°05'0 0.0
2015-Jul-28 20:15N 35°56' E 000°05'0 0.0
2015-Jul-28 19:33N 35°56' E 000°05'0 0.0
2015-Jul-28 18:33N 35°56' E 000°05'0 0.0
2015-Jul-28 17:26N 35°56' E 000°05'0 0.0
2015-Jul-28 16:27N 35°56' E 000°05'0 0.0
2015-Jul-28 15:33N 35°56' E 000°05'0 0.0
2015-Jul-28 14:33N 35°56' E 000°05'0 0.0
2015-Jul-27 23:32N 35°56' E 000°05'0 0.0
2015-Jul-27 22:32N 35°56' E 000°05'0 0.0
2015-Jul-27 21:32N 35°56' E 000°05'0 0.0
2015-Jul-27 20:32N 35°56' E 000°05'0 0.0
2015-Jul-27 19:32N 35°56' E 000°05'0 0.0
2015-Jul-27 18:32N 35°56' E 000°05'0 0.0
2015-Jul-27 17:32N 35°56' E 000°05'0 0.0
2015-Jul-27 16:29N 35°56' E 000°05'0 0.0
2015-Jul-27 15:32N 35°56' E 000°05'0 0.0
2015-Jul-27 14:26N 35°56' E 000°05'0 0.0
2015-Jul-27 13:20N 35°56' E 000°05'0 0.0
2015-Jul-27 12:32N 35°56' E 000°05'0 0.0
2015-Jul-27 11:32N 35°56' E 000°05'0 0.0
2015-Jul-27 10:31N 35°56' E 000°05'0 0.0
2015-Jul-27 09:31N 35°56' E 000°05'0 0.0
2015-Jul-27 08:25N 35°56' E 000°05'0 0.0
2015-Jul-27 07:19N 35°56' E 000°05'0 0.0
2015-Jul-27 03:13N 35°56' E 000°05'0 0.0
2015-Jul-27 02:31N 35°56' E 000°05'0 0.0
2015-Jul-27 01:31N 35°56' E 000°05'0 0.0
2015-Jul-27 00:31N 35°56' E 000°05'0 0.0
2015-Jul-26 23:22N 35°56' E 000°05'0 0.0
2015-Jul-26 22:25N 35°56' E 000°05'0 0.0
2015-Jul-26 21:25N 35°56' E 000°05'0 0.0
2015-Jul-26 20:31N 35°56' E 000°05'0 0.0
2015-Jul-26 19:31N 35°56' E 000°05'0 0.0
2015-Jul-26 18:29N 35°56' E 000°05'0 0.0
2015-Jul-26 17:25N 35°56' E 000°05'0 0.0
2015-Jul-26 16:25N 35°56' E 000°05'0 0.0
2015-Jul-26 15:19N 35°56' E 000°05'2 0.1
2015-Jul-25 11:15N 35°58' E 000°03'0 0.0
2015-Jul-25 10:33N 35°58' E 000°03'0 0.0
2015-Jul-25 09:33N 35°58' E 000°03'0 0.0
2015-Jul-25 08:06N 35°58' E 000°03'0 0.0
2015-Jul-25 05:32N 35°58' E 000°03'0 0.0
2015-Jul-25 03:17N 35°58' E 000°03'0 0.0
2015-Jul-24 20:32N 35°58' E 000°03'0 0.1
2015-Jul-24 19:33N 35°58' E 000°03'0 0.0
2015-Jul-24 18:33N 35°58' E 000°03'0 0.0
2015-Jul-24 17:33N 35°58' E 000°03'0 0.0
2015-Jul-24 16:33N 35°58' E 000°03'0 0.0
2015-Jul-24 15:33N 35°58' E 000°03'0 0.0
2015-Jul-24 14:29N 35°58' E 000°03'0 0.0
2015-Jul-24 13:32N 35°58' E 000°03'0 0.0
2015-Jul-24 12:32N 35°58' E 000°03'0 0.0
2015-Jul-24 11:32N 35°58' E 000°03'0 0.0
2015-Jul-23 22:31N 35°58' E 000°03'0 0.0
2015-Jul-23 18:17N 35°58' E 000°03'0 0.0
2015-Jul-23 17:23N 35°58' E 000°03'0 0.0
2015-Jul-23 13:13N 35°58' E 000°03'5 3.8
2015-Jul-23 12:00N 35°54' E 000°00'5 2.9 360 / 31012.810.8 29.8
2015-Jul-23 10:22N 35°58' E 000°03'0 0.0
2015-Jul-23 09:28N 35°58' E 000°03'0 0.0
2015-Jul-23 08:31N 35°58' E 000°03'0 0.0
2015-Jul-23 05:22N 35°58' E 000°03'0 0.0
2015-Jul-23 04:22N 35°58' E 000°03'0 0.0
2015-Jul-23 03:25N 35°58' E 000°03'0 0.0
2015-Jul-23 02:11N 35°58' E 000°03'0 0.0
2015-Jul-23 01:31N 35°58' E 000°03'0 0.0
2015-Jul-22 22:10N 35°58' E 000°03'0 0.0
2015-Jul-22 20:04N 35°58' E 000°03'0 0.0
2015-Jul-22 19:31N 35°58' E 000°03'0 0.0
2015-Jul-22 15:15N 35°58' E 000°03'0 0.0
2015-Jul-22 14:21N 35°58' E 000°03'0 0.0
2015-Jul-22 13:16N 35°58' E 000°03'0 0.0
2015-Jul-22 12:28N 35°58' E 000°03'0 0.0
2015-Jul-22 11:30N 35°58' E 000°03'4 0.7
2015-Jul-22 06:27N 36°01' E 000°03'9 9.8
2015-Jul-22 05:33N 36°10' E 000°03'1010.4
2015-Jul-22 04:33N 36°20' E 000°05'11 9.8
2015-Jul-22 03:24N 36°27' E 000°16'1010.2
2015-Jul-22 02:26N 36°31' E 000°27'9 9.9
2015-Jul-22 01:33N 36°35' E 000°37'10 9.6
2015-Jul-22 00:29N 36°41' E 000°48'910.2
2015-Jul-21 23:33N 36°45' E 000°59'1111.1
2015-Jul-21 22:33N 36°47' E 001°12'1211.6
2015-Jul-21 21:33N 36°50' E 001°26'1311.7
2015-Jul-21 20:28N 36°53' E 001°41'1111.7
2015-Jul-21 19:33N 36°57' E 001°54'1111.1
2015-Jul-21 18:33N 36°60' E 002°08'1111.0
2015-Jul-21 17:33N 37°02' E 002°21'1111.2
2015-Jul-21 16:33N 37°05' E 002°35'1111.3
2015-Jul-21 15:33N 37°07' E 002°48'1413.7
2015-Jul-21 14:33N 37°09' E 003°05'10 9.4
2015-Jul-21 13:33N 37°10' E 003°17'1211.7
2015-Jul-21 12:33N 37°12' E 003°32'1111.3
2015-Jul-21 11:33N 37°13' E 003°46'  

Dump ship's entire track history